createdAt,value
2022-08-28T00:00:41.849Z,20.76
2022-08-28T00:03:13.757Z,20.76
2022-08-28T00:05:44.813Z,20.73
2022-08-28T00:08:16.861Z,20.75
2022-08-28T00:10:47.170Z,20.73
2022-08-28T00:13:20.624Z,20.69
2022-08-28T00:15:53.116Z,20.66
2022-08-28T00:18:22.051Z,20.66
2022-08-28T00:20:51.739Z,20.60
2022-08-28T00:23:22.207Z,20.56
2022-08-28T00:25:49.914Z,20.48
2022-08-28T00:28:23.491Z,20.40
2022-08-28T00:30:59.045Z,20.29
2022-08-28T00:33:34.225Z,20.22
2022-08-28T00:36:03.938Z,20.20
2022-08-28T00:38:31.736Z,20.22
2022-08-28T00:41:03.906Z,20.23
2022-08-28T00:43:40.117Z,20.24
2022-08-28T00:46:19.875Z,20.24
2022-08-28T00:48:48.920Z,20.23
2022-08-28T00:51:55.686Z,20.23
2022-08-28T00:54:25.042Z,20.20
2022-08-28T00:56:55.658Z,20.18
2022-08-28T00:59:26.109Z,20.12
2022-08-28T01:01:58.525Z,20.09
2022-08-28T01:04:29.921Z,20.05
2022-08-28T01:07:01.460Z,20.03
2022-08-28T01:09:32.674Z,20.00
2022-08-28T01:12:09.078Z,19.98
2022-08-28T01:14:41.600Z,19.98
2022-08-28T01:17:11.209Z,19.98
2022-08-28T01:19:52.334Z,19.94
2022-08-28T01:22:52.831Z,19.92
2022-08-28T01:25:24.750Z,19.86
2022-08-28T01:27:52.672Z,19.82
2022-08-28T01:30:23.492Z,19.76
2022-08-28T01:32:56.773Z,19.70
2022-08-28T01:35:31.622Z,19.64
2022-08-28T01:38:00.705Z,19.61
2022-08-28T01:40:37.994Z,19.61
2022-08-28T01:43:20.481Z,19.59
2022-08-28T01:45:54.007Z,19.51
2022-08-28T01:48:26.438Z,19.49
2022-08-28T01:50:55.445Z,19.47
2022-08-28T01:53:32.143Z,19.47
2022-08-28T01:56:05.224Z,19.46
2022-08-28T01:58:37.922Z,19.39
2022-08-28T02:01:15.813Z,19.45
2022-08-28T02:03:44.041Z,19.44
2022-08-28T02:06:15.129Z,19.48
2022-08-28T02:08:43.060Z,19.48
2022-08-28T02:13:58.017Z,19.51
2022-08-28T02:16:27.237Z,19.47
2022-08-28T02:18:56.847Z,19.45
2022-08-28T02:21:25.281Z,19.41
2022-08-28T02:23:53.796Z,19.29
2022-08-28T02:26:21.930Z,19.30
2022-08-28T02:28:50.364Z,19.28
2022-08-28T02:31:18.208Z,19.29
2022-08-28T02:33:46.202Z,19.32
2022-08-28T02:36:16.110Z,19.34
2022-08-28T02:38:47.496Z,19.37
2022-08-28T02:41:15.284Z,19.35
2022-08-28T02:43:43.299Z,19.31
2022-08-28T02:46:11.609Z,19.28
2022-08-28T02:48:40.653Z,19.24
2022-08-28T02:51:13.418Z,19.18
2022-08-28T02:53:42.431Z,19.17
2022-08-28T02:56:10.553Z,19.24
2022-08-28T02:58:39.885Z,19.24
2022-08-28T03:01:11.458Z,19.22
2022-08-28T03:03:41.455Z,19.15
2022-08-28T03:06:12.671Z,19.11
2022-08-28T03:08:42.994Z,19.08
2022-08-28T03:11:12.113Z,19.02
2022-08-28T03:13:39.898Z,19.01
2022-08-28T03:16:08.802Z,19.04
2022-08-28T03:18:37.056Z,19.07
2022-08-28T03:21:05.010Z,19.10
2022-08-28T03:23:32.744Z,19.03
2022-08-28T03:26:09.035Z,18.99
2022-08-28T03:28:47.230Z,18.91
2022-08-28T03:31:19.966Z,18.89
2022-08-28T03:33:48.934Z,18.87
2022-08-28T03:36:23.066Z,18.84
2022-08-28T03:38:53.247Z,18.82
2022-08-28T03:41:24.486Z,18.88
2022-08-28T03:43:52.428Z,18.91
2022-08-28T03:46:24.531Z,18.87
2022-08-28T03:48:53.970Z,18.81
2022-08-28T03:51:29.233Z,18.83
2022-08-28T03:54:03.338Z,18.83
2022-08-28T03:56:31.346Z,18.80
2022-08-28T03:59:02.164Z,18.77
2022-08-28T04:01:30.115Z,18.72
2022-08-28T04:03:58.102Z,18.69
2022-08-28T04:06:28.104Z,18.69
2022-08-28T04:09:00.027Z,18.64
2022-08-28T04:11:29.204Z,18.66
2022-08-28T04:13:57.958Z,18.65
2022-08-28T04:16:25.760Z,18.62
2022-08-28T04:18:53.585Z,18.62
2022-08-28T04:21:26.043Z,18.59
2022-08-28T04:23:54.944Z,18.59
2022-08-28T04:26:26.878Z,18.61
2022-08-28T04:28:56.160Z,18.64
2022-08-28T04:31:32.091Z,18.66
2022-08-28T04:34:07.008Z,18.68
2022-08-28T04:36:35.621Z,18.72
2022-08-28T04:39:08.531Z,18.70
2022-08-28T04:41:38.607Z,18.69
2022-08-28T04:44:07.399Z,18.71
2022-08-28T04:46:36.704Z,18.75
2022-08-28T04:49:05.869Z,18.81
2022-08-28T04:51:36.908Z,18.84
2022-08-28T04:54:08.302Z,18.85
2022-08-28T04:56:36.564Z,18.89
2022-08-28T04:59:04.534Z,18.92
2022-08-28T05:01:32.955Z,18.93
2022-08-28T05:04:03.922Z,18.93
2022-08-28T05:06:33.746Z,18.96
2022-08-28T05:09:04.436Z,18.96
2022-08-28T05:11:34.592Z,18.96
2022-08-28T05:14:15.849Z,18.96
2022-08-28T05:16:50.836Z,18.97
2022-08-28T05:19:21.722Z,19.07
2022-08-28T05:21:49.626Z,19.18
2022-08-28T05:24:18.191Z,19.30
2022-08-28T05:26:48.257Z,19.40
2022-08-28T05:29:17.874Z,19.43
2022-08-28T05:31:46.311Z,19.45
2022-08-28T05:34:15.298Z,19.49
2022-08-28T05:36:43.242Z,19.54
2022-08-28T05:39:13.351Z,19.58
2022-08-28T05:41:43.477Z,19.58
2022-08-28T05:44:14.619Z,19.67
2022-08-28T05:46:47.747Z,19.73
2022-08-28T05:49:18.417Z,19.81
2022-08-28T05:51:47.556Z,19.89
2022-08-28T05:54:16.768Z,19.95
2022-08-28T05:56:46.328Z,20.01
2022-08-28T05:59:16.069Z,20.05
2022-08-28T06:01:49.775Z,20.15
2022-08-28T06:04:25.374Z,20.23
2022-08-28T06:06:54.050Z,20.35
2022-08-28T06:09:29.911Z,20.44
2022-08-28T06:12:02.399Z,20.54
2022-08-28T06:14:31.511Z,20.66
2022-08-28T06:17:01.005Z,20.75
2022-08-28T06:19:32.776Z,20.87
2022-08-28T06:22:07.299Z,21.01
2022-08-28T06:24:36.097Z,21.13
2022-08-28T06:27:04.382Z,21.25
2022-08-28T06:29:32.217Z,21.36
2022-08-28T06:32:04.808Z,21.46
2022-08-28T06:34:32.733Z,21.56
2022-08-28T06:37:00.899Z,21.69
2022-08-28T06:39:28.641Z,21.82
2022-08-28T06:41:56.327Z,21.95
2022-08-28T06:44:24.313Z,22.07
2022-08-28T06:46:54.703Z,22.20
2022-08-28T06:49:22.997Z,22.32
2022-08-28T06:51:51.467Z,22.49
2022-08-28T06:54:22.812Z,22.59
2022-08-28T06:56:52.670Z,22.71
2022-08-28T06:59:20.676Z,22.83
2022-08-28T07:01:49.361Z,22.97
2022-08-28T07:04:17.300Z,23.08
2022-08-28T07:06:46.961Z,23.25
2022-08-28T07:09:14.869Z,23.39
2022-08-28T07:11:49.132Z,23.53
2022-08-28T07:14:17.335Z,23.68
2022-08-28T07:16:45.157Z,23.86
2022-08-28T07:19:13.817Z,24.03
2022-08-28T07:21:45.031Z,24.21
2022-08-28T07:24:15.463Z,24.41
2022-08-28T07:26:46.288Z,24.57
2022-08-28T07:29:14.431Z,24.74
2022-08-28T07:31:48.304Z,24.81
2022-08-28T07:34:18.679Z,24.91
2022-08-28T07:36:46.959Z,25.06
2022-08-28T07:39:16.073Z,25.11
2022-08-28T07:41:44.645Z,25.21
2022-08-28T07:44:33.913Z,25.34
2022-08-28T07:47:05.779Z,25.49
2022-08-28T07:49:35.166Z,25.55
2022-08-28T07:52:04.071Z,25.66
2022-08-28T07:54:31.852Z,25.78
2022-08-28T07:56:59.526Z,25.93
2022-08-28T07:59:28.787Z,26.03
2022-08-28T08:02:05.340Z,26.19
2022-08-28T08:04:33.335Z,26.28
2022-08-28T08:07:03.553Z,26.44
2022-08-28T08:09:31.617Z,26.58
2022-08-28T08:12:00.325Z,26.69
2022-08-28T08:14:28.660Z,26.87
2022-08-28T08:16:56.360Z,27.01
2022-08-28T08:19:24.233Z,27.15
2022-08-28T08:21:55.194Z,27.33
2022-08-28T08:24:26.533Z,27.44
2022-08-28T08:27:00.801Z,27.52
2022-08-28T08:29:35.666Z,27.60
2022-08-28T08:32:10.630Z,27.72
2022-08-28T08:34:42.825Z,27.84
2022-08-28T08:37:11.830Z,27.91
2022-08-28T08:39:42.171Z,28.02
2022-08-28T08:42:26.079Z,28.10
2022-08-28T08:44:58.593Z,28.26
2022-08-28T08:47:47.793Z,28.39
2022-08-28T08:50:34.481Z,28.55
2022-08-28T08:53:26.851Z,28.71
2022-08-28T08:55:58.315Z,28.84
2022-08-28T08:58:41.183Z,28.99
2022-08-28T09:01:27.505Z,29.15
2022-08-28T09:04:09.525Z,29.34
2022-08-28T09:07:39.581Z,29.51
2022-08-28T09:10:12.410Z,29.64
2022-08-28T09:13:16.942Z,29.74
2022-08-28T09:15:50.657Z,29.88
2022-08-28T09:18:26.242Z,29.99
2022-08-28T09:20:58.546Z,30.20
2022-08-28T09:23:29.059Z,30.31
2022-08-28T09:26:03.804Z,30.37
2022-08-28T09:28:40.902Z,30.43
2022-08-28T09:31:13.223Z,30.41
2022-08-28T09:33:51.859Z,30.56
2022-08-28T09:36:32.531Z,30.58
2022-08-28T09:39:12.184Z,30.59
2022-08-28T09:42:07.602Z,30.62
2022-08-28T09:44:51.832Z,30.70
2022-08-28T09:47:55.032Z,30.59
2022-08-28T09:50:37.492Z,30.63
2022-08-28T09:53:11.621Z,30.69
2022-08-28T09:55:57.222Z,30.78
2022-08-28T09:58:37.471Z,30.81
2022-08-28T10:01:44.861Z,30.90
2022-08-28T10:04:40.528Z,30.97
2022-08-28T10:07:57.931Z,31.02
2022-08-28T10:10:55.483Z,31.17
2022-08-28T10:13:38.797Z,31.21
2022-08-28T10:16:54.730Z,31.29
2022-08-28T10:19:58.359Z,31.38
2022-08-28T10:22:53.902Z,31.37
2022-08-28T10:25:33.336Z,31.48
2022-08-28T10:28:12.456Z,31.58
2022-08-28T10:30:55.165Z,31.57
2022-08-28T10:33:58.766Z,31.60
2022-08-28T10:36:34.437Z,31.59
2022-08-28T10:39:45.325Z,31.64
2022-08-28T10:42:33.750Z,31.73
2022-08-28T10:45:16.118Z,31.82
2022-08-28T10:47:52.097Z,31.84
2022-08-28T10:50:26.372Z,31.89
2022-08-28T10:53:11.915Z,31.95
2022-08-28T10:55:57.246Z,31.92
2022-08-28T10:58:27.572Z,31.93
2022-08-28T11:01:05.886Z,31.96
2022-08-28T11:03:46.331Z,32.08
2022-08-28T11:06:32.379Z,32.21
2022-08-28T11:09:24.905Z,32.20
2022-08-28T11:12:19.898Z,32.16
2022-08-28T11:14:53.564Z,32.22
2022-08-28T11:17:27.833Z,32.25
2022-08-28T11:20:25.122Z,32.30
2022-08-28T11:23:20.291Z,32.35
2022-08-28T11:26:02.349Z,32.44
2022-08-28T11:28:35.910Z,32.41
2022-08-28T11:31:06.399Z,32.37
2022-08-28T11:33:48.514Z,32.34
2022-08-28T11:36:21.694Z,32.29
2022-08-28T11:38:52.070Z,32.23
2022-08-28T11:41:39.114Z,32.16
2022-08-28T11:44:09.587Z,32.09
2022-08-28T11:46:45.591Z,32.14
2022-08-28T11:49:33.944Z,32.14
2022-08-28T11:52:19.412Z,32.09
2022-08-28T11:55:08.578Z,32.02
2022-08-28T11:57:45.644Z,32.02
2022-08-28T12:00:35.406Z,31.98
2022-08-28T12:03:24.480Z,31.94
2022-08-28T12:05:57.118Z,32.01
2022-08-28T12:08:53.442Z,32.06
2022-08-28T12:11:39.681Z,32.09
2022-08-28T12:14:11.882Z,32.13
2022-08-28T12:17:26.861Z,32.16
2022-08-28T12:20:10.702Z,32.17
2022-08-28T12:22:53.117Z,32.16
2022-08-28T12:25:35.320Z,32.03
2022-08-28T12:28:18.817Z,32.08
2022-08-28T12:31:20.537Z,32.05
2022-08-28T12:34:04.567Z,31.94
2022-08-28T12:36:33.865Z,31.88
2022-08-28T12:39:01.700Z,31.90
2022-08-28T12:41:30.616Z,31.92
2022-08-28T12:44:00.385Z,31.94
2022-08-28T12:46:37.660Z,32.00
2022-08-28T12:49:30.899Z,32.00
2022-08-28T12:52:19.002Z,32.07
2022-08-28T12:54:49.574Z,32.11
2022-08-28T12:57:26.601Z,32.17
2022-08-28T13:00:06.465Z,32.18
2022-08-28T13:02:35.088Z,32.15
2022-08-28T13:05:29.209Z,32.08
2022-08-28T13:08:01.054Z,32.12
2022-08-28T13:10:47.380Z,32.18
2022-08-28T13:13:23.197Z,32.17
2022-08-28T13:16:01.490Z,32.10
2022-08-28T13:18:39.335Z,32.05
2022-08-28T13:21:33.409Z,32.08
2022-08-28T13:24:22.243Z,32.15
2022-08-28T13:27:20.331Z,32.17
2022-08-28T13:30:22.169Z,32.18
2022-08-28T13:33:20.141Z,32.27
2022-08-28T13:35:48.884Z,32.39
2022-08-28T13:38:22.590Z,32.48
2022-08-28T13:40:59.420Z,32.49
2022-08-28T13:43:42.335Z,32.47
2022-08-28T13:46:10.411Z,32.46
2022-08-28T13:48:38.393Z,32.51
2022-08-28T13:51:14.239Z,32.58
2022-08-28T13:53:50.594Z,32.51
2022-08-28T13:56:21.846Z,32.47
2022-08-28T13:58:57.645Z,32.54
2022-08-28T14:01:49.072Z,32.55
2022-08-28T14:04:16.998Z,32.51
2022-08-28T14:06:44.744Z,32.42
2022-08-28T14:09:15.350Z,32.37
2022-08-28T14:11:47.642Z,32.43
2022-08-28T14:14:16.053Z,32.45
2022-08-28T14:16:45.603Z,32.37
2022-08-28T14:19:13.661Z,32.40
2022-08-28T14:21:41.901Z,32.37
2022-08-28T14:24:09.811Z,32.35
2022-08-28T14:26:38.174Z,32.29
2022-08-28T14:29:09.412Z,32.21
2022-08-28T14:31:40.814Z,32.16
2022-08-28T14:34:14.750Z,32.11
2022-08-28T14:36:43.423Z,32.01
2022-08-28T14:39:13.131Z,31.97
2022-08-28T14:41:47.113Z,31.96
2022-08-28T14:44:15.970Z,32.00
2022-08-28T14:46:46.331Z,32.02
2022-08-28T14:49:16.685Z,32.15
2022-08-28T14:51:46.928Z,32.22
2022-08-28T14:54:18.584Z,32.27
2022-08-28T14:56:47.521Z,32.32
2022-08-28T14:59:25.033Z,32.34
2022-08-28T15:01:58.115Z,32.37
2022-08-28T15:04:34.352Z,32.43
2022-08-28T15:07:08.515Z,32.51
2022-08-28T15:09:41.216Z,32.46
2022-08-28T15:12:09.525Z,32.34
2022-08-28T15:14:37.461Z,32.23
2022-08-28T15:17:05.775Z,32.13
2022-08-28T15:19:33.795Z,32.07
2022-08-28T15:22:02.038Z,32.02
2022-08-28T15:24:34.560Z,31.96
2022-08-28T15:27:03.279Z,31.86
2022-08-28T15:29:31.058Z,31.74
2022-08-28T15:32:00.790Z,31.65
2022-08-28T15:34:29.153Z,31.52
2022-08-28T15:36:58.594Z,31.40
2022-08-28T15:39:47.400Z,31.27
2022-08-28T15:42:15.388Z,31.17
2022-08-28T15:44:43.589Z,31.08
2022-08-28T15:47:13.799Z,30.96
2022-08-28T15:49:46.780Z,30.86
2022-08-28T15:52:19.161Z,30.74
2022-08-28T15:54:48.275Z,30.61
2022-08-28T15:57:17.646Z,30.54
2022-08-28T15:59:49.709Z,30.44
2022-08-28T16:02:22.597Z,30.38
2022-08-28T16:04:51.234Z,30.33
2022-08-28T16:07:20.855Z,30.27
2022-08-28T16:09:49.694Z,30.23
2022-08-28T16:12:18.620Z,30.21
2022-08-28T16:14:46.958Z,30.15
2022-08-28T16:17:15.127Z,30.14
2022-08-28T16:19:46.108Z,30.09
2022-08-28T16:22:17.604Z,30.06
2022-08-28T16:24:51.703Z,30.07
2022-08-28T16:27:19.878Z,30.05
2022-08-28T16:29:52.718Z,30.09
2022-08-28T16:32:20.883Z,30.11
2022-08-28T16:34:49.538Z,30.13
2022-08-28T16:37:20.830Z,30.16
2022-08-28T16:39:56.074Z,30.17
2022-08-28T16:42:24.795Z,30.10
2022-08-28T16:44:59.802Z,29.97
2022-08-28T16:47:31.808Z,29.93
2022-08-28T16:50:02.492Z,29.88
2022-08-28T16:52:30.332Z,29.82
2022-08-28T16:54:59.937Z,29.75
2022-08-28T16:57:28.161Z,29.65
2022-08-28T16:59:56.078Z,29.59
2022-08-28T17:02:26.412Z,29.53
2022-08-28T17:04:55.876Z,29.48
2022-08-28T17:07:23.618Z,29.42
2022-08-28T17:09:51.420Z,29.35
2022-08-28T17:12:19.353Z,29.29
2022-08-28T17:14:47.016Z,29.23
2022-08-28T17:17:15.147Z,29.15
2022-08-28T17:19:43.018Z,29.07
2022-08-28T17:22:30.221Z,28.97
2022-08-28T17:25:09.533Z,28.83
2022-08-28T17:27:38.437Z,28.76
2022-08-28T17:30:09.278Z,28.70
2022-08-28T17:32:37.369Z,28.66
2022-08-28T17:35:05.623Z,28.62
2022-08-28T17:37:33.383Z,28.57
2022-08-28T17:40:01.191Z,28.49
2022-08-28T17:42:29.098Z,28.40
2022-08-28T17:44:56.780Z,28.33
2022-08-28T17:47:26.411Z,28.25
2022-08-28T17:50:00.568Z,28.14
2022-08-28T17:52:29.585Z,28.04
2022-08-28T17:54:57.455Z,27.96
2022-08-28T17:57:25.300Z,27.94
2022-08-28T17:59:53.409Z,27.88
2022-08-28T18:02:21.317Z,27.81
2022-08-28T18:04:50.352Z,27.77
2022-08-28T18:07:18.375Z,27.77
2022-08-28T18:09:46.470Z,27.80
2022-08-28T18:12:14.510Z,27.79
2022-08-28T18:14:42.507Z,27.84
2022-08-28T18:17:11.490Z,27.84
2022-08-28T18:19:40.350Z,27.86
2022-08-28T18:22:11.755Z,27.84
2022-08-28T18:24:40.866Z,27.80
2022-08-28T18:27:09.563Z,27.75
2022-08-28T18:29:39.686Z,27.71
2022-08-28T18:32:08.191Z,27.67
2022-08-28T18:34:37.089Z,27.64
2022-08-28T18:37:05.293Z,27.66
2022-08-28T18:39:36.069Z,27.69
2022-08-28T18:42:04.306Z,27.64
2022-08-28T18:44:34.039Z,27.62
2022-08-28T18:47:02.266Z,27.54
2022-08-28T18:49:30.284Z,27.46
2022-08-28T18:51:58.303Z,27.40
2022-08-28T18:54:26.365Z,27.36
2022-08-28T18:57:01.444Z,27.30
2022-08-28T18:59:33.339Z,27.27
2022-08-28T19:04:29.127Z,27.19
2022-08-28T19:06:56.874Z,27.15
2022-08-28T19:09:31.709Z,27.16
2022-08-28T19:12:00.697Z,27.08
2022-08-28T19:14:28.518Z,26.94
2022-08-28T19:16:56.669Z,26.77
2022-08-28T19:19:24.717Z,26.63
2022-08-28T19:21:52.473Z,26.49
2022-08-28T19:24:22.473Z,26.39
2022-08-28T19:26:50.315Z,26.28
2022-08-28T19:29:19.368Z,26.18
2022-08-28T19:31:47.096Z,26.10
2022-08-28T19:34:14.899Z,26.06
2022-08-28T19:36:42.646Z,25.98
2022-08-28T19:39:11.071Z,25.93
2022-08-28T19:41:39.226Z,25.91
2022-08-28T19:44:07.853Z,25.88
2022-08-28T19:46:38.679Z,25.89
2022-08-28T19:49:07.551Z,25.84
2022-08-28T19:51:38.234Z,25.77
2022-08-28T19:54:11.125Z,25.75
2022-08-28T19:56:40.972Z,25.68
2022-08-28T19:59:09.351Z,25.58
2022-08-28T20:01:43.625Z,25.57
2022-08-28T20:04:16.725Z,25.50
2022-08-28T20:06:45.769Z,25.50
2022-08-28T20:09:14.206Z,25.51
2022-08-28T20:11:45.041Z,25.51
2022-08-28T20:14:15.248Z,25.47
2022-08-28T20:16:46.259Z,25.45
2022-08-28T20:19:15.301Z,25.44
2022-08-28T20:21:45.826Z,25.41
2022-08-28T20:24:21.897Z,25.38
2022-08-28T20:26:50.922Z,25.30
2022-08-28T20:29:19.219Z,25.22
2022-08-28T20:31:48.449Z,25.12
2022-08-28T20:34:19.407Z,25.05
2022-08-28T20:36:47.856Z,24.98
2022-08-28T20:39:16.583Z,24.93
2022-08-28T20:41:46.109Z,24.92
2022-08-28T20:44:18.857Z,24.92
2022-08-28T20:46:51.160Z,24.89
2022-08-28T20:49:22.292Z,24.88
2022-08-28T20:51:54.512Z,24.88
2022-08-28T20:54:30.356Z,24.89
2022-08-28T20:57:03.611Z,24.88
2022-08-28T20:59:37.229Z,24.82
2022-08-28T21:02:13.115Z,24.71
2022-08-28T21:04:43.329Z,24.58
2022-08-28T21:07:13.176Z,24.53
2022-08-28T21:10:06.025Z,24.47
2022-08-28T21:12:29.733Z,24.51
2022-08-28T21:14:58.559Z,24.51
2022-08-28T21:17:29.124Z,24.47
2022-08-28T21:20:01.777Z,24.47
2022-08-28T21:22:31.600Z,24.44
2022-08-28T21:24:59.573Z,24.45
2022-08-28T21:27:27.429Z,24.40
2022-08-28T21:29:58.369Z,24.38
2022-08-28T21:32:28.607Z,24.34
2022-08-28T21:34:56.629Z,24.29
2022-08-28T21:37:24.646Z,24.28
2022-08-28T21:39:53.792Z,24.23
2022-08-28T21:42:25.149Z,24.19
2022-08-28T21:44:54.558Z,24.11
2022-08-28T21:47:24.292Z,24.05
2022-08-28T21:49:55.153Z,23.97
2022-08-28T21:52:29.831Z,24.04
2022-08-28T21:55:00.727Z,23.99
2022-08-28T21:57:29.566Z,23.85
2022-08-28T21:59:58.555Z,23.83
2022-08-28T22:02:27.041Z,23.71
2022-08-28T22:04:55.105Z,23.60
2022-08-28T22:07:22.892Z,23.64
2022-08-28T22:09:50.833Z,23.65
2022-08-28T22:12:18.726Z,23.71
2022-08-28T22:14:46.515Z,23.79
2022-08-28T22:17:15.198Z,23.81
2022-08-28T22:19:43.326Z,23.82
2022-08-28T22:22:34.714Z,23.76
2022-08-28T22:25:02.625Z,23.59
2022-08-28T22:27:32.066Z,23.58
2022-08-28T22:29:59.973Z,23.55
2022-08-28T22:32:28.134Z,23.59
2022-08-28T22:34:55.922Z,23.42
2022-08-28T22:37:23.776Z,23.34
2022-08-28T22:39:52.111Z,23.25
2022-08-28T22:42:19.869Z,23.20
2022-08-28T22:44:47.640Z,23.11
2022-08-28T22:47:15.479Z,23.05
2022-08-28T22:49:47.126Z,22.94
2022-08-28T22:52:15.541Z,22.69
2022-08-28T22:54:43.368Z,22.63
2022-08-28T22:57:11.741Z,22.59
2022-08-28T22:59:39.415Z,22.40
2022-08-28T23:02:07.856Z,22.27
2022-08-28T23:04:35.569Z,22.28
2022-08-28T23:07:03.877Z,22.32
2022-08-28T23:09:31.775Z,22.27
2022-08-28T23:12:07.881Z,22.23
2022-08-28T23:14:35.625Z,22.28
2022-08-28T23:17:03.435Z,22.26
2022-08-28T23:19:32.162Z,22.24
2022-08-28T23:22:00.281Z,22.29
2022-08-28T23:24:28.099Z,22.39
2022-08-28T23:26:55.946Z,22.42
2022-08-28T23:29:23.707Z,22.40
2022-08-28T23:31:51.426Z,22.32
2022-08-28T23:34:19.365Z,22.32
2022-08-28T23:36:47.477Z,22.30
2022-08-28T23:39:15.885Z,22.28
2022-08-28T23:41:43.560Z,22.32
2022-08-28T23:44:11.393Z,22.25
2022-08-28T23:46:41.175Z,22.18
2022-08-28T23:49:11.533Z,22.17
2022-08-28T23:51:40.925Z,22.12
2022-08-28T23:54:10.405Z,22.17
2022-08-28T23:56:38.917Z,22.19
2022-08-28T23:59:07.023Z,22.25
